Time;durP1;ratioP1;P1;durP2;ratioP2;P2;SDS_P1;SDS_P2;PMS_P1;PMS_P2;Temp;Humidity;BMP_temperature;BMP_pressure;BME280_temperature;BME280_humidity;BME280_pressure;Samples;Min_cycle;Max_cycle;Signal;HPM_P1;HPM_P2
2024/01/16 00:01:18;;;;;;;23.40;15.50;;;;;;;-2.31;74.72;97772.61;105700;1258;72652;-76
2024/01/16 00:03:45;;;;;;;23.60;14.90;;;;;;;-2.35;74.86;97753.92;105827;1263;70432;-74
2024/01/16 00:06:13;;;;;;;23.60;14.50;;;;;;;-2.38;74.83;97752.48;106233;1257;72723;-73
2024/01/16 00:08:40;;;;;;;21.80;13.60;;;;;;;-2.40;74.88;97744.98;107377;1253;59446;-76
2024/01/16 00:11:08;;;;;;;20.50;13.60;;;;;;;-2.33;74.78;97727.57;107359;1254;60735;-73
2024/01/16 00:13:35;;;;;;;19.90;13.20;;;;;;;-2.21;74.55;97725.92;105801;1254;73867;-73
2024/01/16 00:16:03;;;;;;;22.30;13.60;;;;;;;-2.20;74.65;97723.79;105806;1258;69997;-75
2024/01/16 00:18:31;;;;;;;20.80;13.60;;;;;;;-2.23;74.73;97726.69;105775;1254;71393;-74
2024/01/16 00:21:02;;;;;;;25.40;15.30;;;;;;;-2.27;74.84;97738.96;105794;1255;60502;-74
2024/01/16 00:23:32;;;;;;;25.20;14.50;;;;;;;-2.31;74.72;97748.54;105631;1257;60311;-74
2024/01/16 00:26:00;;;;;;;23.00;13.20;;;;;;;-2.34;74.71;97751.24;105806;1254;72548;-74
2024/01/16 00:28:27;;;;;;;23.30;13.70;;;;;;;-2.24;74.71;97757.23;105749;1259;69203;-73
2024/01/16 00:30:55;;;;;;;22.50;14.60;;;;;;;-2.19;74.46;97764.42;105730;1259;71417;-74
2024/01/16 00:33:22;;;;;;;21.70;14.80;;;;;;;-2.23;74.40;97762.73;105851;1253;60416;-74
2024/01/16 00:35:51;;;;;;;24.10;16.00;;;;;;;-2.27;74.30;97751.98;105942;1257;60360;-74
2024/01/16 00:38:18;;;;;;;25.60;16.20;;;;;;;-2.34;74.12;97740.84;107136;1259;72857;-73
2024/01/16 00:40:46;;;;;;;25.00;15.30;;;;;;;-2.39;74.26;97742.97;108438;1254;70120;-72
2024/01/16 00:43:13;;;;;;;23.20;14.80;;;;;;;-2.31;74.40;97749.03;106998;1254;70090;-73
2024/01/16 00:45:40;;;;;;;20.00;13.60;;;;;;;-2.30;74.48;97740.83;105793;1254;60419;-74
2024/01/16 00:48:10;;;;;;;24.80;16.00;;;;;;;-2.34;74.56;97741.89;105716;1258;60381;-73
2024/01/16 00:50:38;;;;;;;23.60;15.10;;;;;;;-2.38;74.62;97740.45;105682;1254;72562;-72
2024/01/16 00:53:05;;;;;;;26.10;15.50;;;;;;;-2.39;74.76;97735.91;105583;1257;68872;-74
2024/01/16 00:55:33;;;;;;;27.40;17.10;;;;;;;-2.41;74.79;97744.34;105500;1261;71179;-72
2024/01/16 00:58:00;;;;;;;31.80;17.70;;;;;;;-2.42;74.68;97739.10;105662;1258;60481;-74
2024/01/16 01:00:30;;;;;;;25.60;15.50;;;;;;;-2.35;74.57;97732.46;105692;1258;60526;-74
2024/01/16 01:03:01;;;;;;;25.30;16.80;;;;;;;-2.24;74.55;97729.91;105691;1260;73911;-73
2024/01/16 01:05:28;;;;;;;27.00;16.50;;;;;;;-2.25;74.49;97726.70;105804;1257;69167;-73
2024/01/16 01:07:56;;;;;;;26.60;17.70;;;;;;;-2.29;74.47;97730.50;105631;1257;71459;-73
2024/01/16 01:10:23;;;;;;;29.10;18.00;;;;;;;-2.34;74.64;97737.39;105710;1254;60567;-75
2024/01/16 01:12:54;;;;;;;33.80;19.60;;;;;;;-2.40;74.67;97734.27;105620;1255;60365;-74
2024/01/16 01:15:22;;;;;;;32.00;19.50;;;;;;;-2.46;74.79;97741.33;105830;1259;72134;-73
2024/01/16 01:17:50;;;;;;;29.90;18.00;;;;;;;-2.51;74.85;97748.77;105718;1255;69068;-73
2024/01/16 01:20:18;;;;;;;30.40;19.00;;;;;;;-2.46;74.79;97750.71;105701;1257;71527;-74
2024/01/16 01:22:46;;;;;;;29.00;16.70;;;;;;;-2.39;74.82;97748.69;105616;1257;60437;-74
2024/01/16 01:25:13;;;;;;;29.10;18.50;;;;;;;-2.41;75.11;97748.74;105579;1258;60504;-74
2024/01/16 01:27:41;;;;;;;31.00;17.80;;;;;;;-2.47;75.15;97744.92;105610;1260;73948;-73
2024/01/16 01:30:11;;;;;;;33.30;19.00;;;;;;;-2.52;75.32;97746.95;105664;1254;69980;-74
2024/01/16 01:32:39;;;;;;;31.30;19.10;;;;;;;-2.56;75.31;97747.63;105955;1260;71448;-73
2024/01/16 01:35:07;;;;;;;29.30;18.00;;;;;;;-2.59;75.34;97750.63;105888;1258;60381;-73
2024/01/16 01:37:34;;;;;;;25.30;17.70;;;;;;;-2.52;75.28;97757.63;108617;1254;58741;-72
2024/01/16 01:40:02;;;;;;;28.40;16.70;;;;;;;-2.43;75.30;97761.07;108435;1254;72625;-74
2024/01/16 01:42:30;;;;;;;28.20;17.90;;;;;;;-2.44;75.21;97769.77;105757;1254;70281;-73
2024/01/16 01:44:57;;;;;;;38.20;22.90;;;;;;;-2.46;75.33;97773.29;105522;1260;71408;-73
2024/01/16 01:47:25;;;;;;;28.50;17.90;;;;;;;-2.48;75.44;97779.83;105812;1258;60461;-74
2024/01/16 01:49:52;;;;;;;28.30;18.10;;;;;;;-2.49;75.43;97786.88;105696;1260;179751;-74
2024/01/16 01:54:35;;;;;;;28.90;17.50;;;;;;;-2.35;75.37;97803.54;103162;1291;600625;-74
2024/01/16 01:57:03;;;;;;;25.20;16.40;;;;;;;-2.37;75.26;97795.02;104938;1272;59830;-73
2024/01/16 01:59:31;;;;;;;28.90;17.20;;;;;;;-2.41;75.58;97802.13;104794;1266;60034;-75
2024/01/16 02:01:58;;;;;;;31.50;18.00;;;;;;;-2.44;75.51;97792.02;104960;1272;72276;-74
2024/01/16 02:04:25;;;;;;;28.20;18.20;;;;;;;-2.46;75.63;97779.61;104900;1269;68909;-76
2024/01/16 02:06:53;;;;;;;27.00;16.10;;;;;;;-2.46;75.58;97774.64;104718;1267;71407;-74
2024/01/16 02:09:21;;;;;;;28.40;16.80;;;;;;;-2.38;75.44;97768.56;104757;1267;189463;-75
2024/01/16 02:11:48;;;;;;;25.70;16.30;;;;;;;-2.29;75.26;97765.65;104991;1266;60161;-74
2024/01/16 02:14:16;;;;;;;25.20;16.60;;;;;;;-2.29;75.37;97764.29;105085;1266;70854;-75
2024/01/16 02:16:46;;;;;;;25.20;17.00;;;;;;;-2.31;75.36;97760.01;105068;1267;70001;-74
2024/01/16 02:19:14;;;;;;;28.00;17.60;;;;;;;-2.33;75.22;97759.13;105064;1267;71784;-74
2024/01/16 02:21:48;;;;;;;29.70;17.50;;;;;;;-2.36;75.32;97767.01;105021;1267;59759;-74
2024/01/16 02:24:17;;;;;;;26.10;18.30;;;;;;;-2.39;75.31;97778.02;105087;1270;59663;-74
2024/01/16 02:26:45;;;;;;;28.70;18.50;;;;;;;-2.41;75.43;97774.02;105696;1262;73042;-74
2024/01/16 02:29:13;;;;;;;27.00;17.30;;;;;;;-2.32;75.22;97770.85;105781;1254;68752;-73
2024/01/16 02:31:40;;;;;;;27.10;17.40;;;;;;;-2.24;75.09;97774.07;105958;1254;72650;-74
2024/01/16 02:34:08;;;;;;;26.70;17.00;;;;;;;-2.25;75.26;97772.63;107775;1254;59583;-73
2024/01/16 02:36:37;;;;;;;30.20;18.40;;;;;;;-2.28;75.19;97776.52;108437;1254;58224;-75
2024/01/16 02:39:06;;;;;;;32.90;19.10;;;;;;;-2.31;75.28;97776.25;106870;1254;70893;-74
2024/01/16 02:41:34;;;;;;;32.30;19.70;;;;;;;-2.33;75.45;97774.38;105860;1254;70099;-74
2024/01/16 02:44:01;;;;;;;31.80;18.10;;;;;;;-2.36;75.43;97784.54;105687;1254;71503;-74
2024/01/16 02:46:29;;;;;;;27.90;18.00;;;;;;;-2.37;75.32;97787.18;105575;1254;60948;-73
2024/01/16 02:48:56;;;;;;;30.70;18.00;;;;;;;-2.26;75.30;97794.05;105750;1254;59583;-73
2024/01/16 02:51:23;;;;;;;28.90;17.60;;;;;;;-2.23;75.14;97791.71;105742;1254;71825;-74
2024/01/16 02:53:51;;;;;;;27.90;17.80;;;;;;;-2.29;75.35;97785.97;105774;1254;68710;-74
2024/01/16 02:56:18;;;;;;;29.30;18.00;;;;;;;-2.34;75.47;97784.54;105847;1257;71056;-74
2024/01/16 02:58:45;;;;;;;29.70;17.70;;;;;;;-2.40;75.59;97778.80;105608;1259;59763;-73
2024/01/16 03:01:14;;;;;;;29.80;18.00;;;;;;;-2.36;75.54;97778.91;105703;1255;60012;-74
2024/01/16 03:03:42;;;;;;;24.30;17.30;;;;;;;-2.26;75.39;97782.77;105740;1254;71839;-74
2024/01/16 03:06:09;;;;;;;31.30;19.60;;;;;;;-2.29;75.45;97783.89;105660;1257;70377;-73
2024/01/16 03:08:37;;;;;;;30.40;19.20;;;;;;;-2.36;75.41;97788.65;105926;1259;71820;-74
2024/01/16 03:11:05;;;;;;;28.70;17.80;;;;;;;-2.41;75.46;97795.89;105769;1257;59618;-75
2024/01/16 03:13:32;;;;;;;32.50;18.90;;;;;;;-2.44;75.51;97795.50;105704;1254;60019;-74
2024/01/16 03:16:00;;;;;;;36.80;19.80;;;;;;;-2.36;75.36;97793.38;105793;1259;71882;-76
2024/01/16 03:18:27;;;;;;;30.20;20.20;;;;;;;-2.37;75.30;97791.40;106175;1254;69923;-74
2024/01/16 03:20:55;;;;;;;30.30;19.10;;;;;;;-2.45;75.23;97789.45;106380;1257;72146;-75
2024/01/16 03:23:22;;;;;;;31.20;18.40;;;;;;;-2.51;75.38;97785.80;105828;1259;59670;-74
2024/01/16 03:25:50;;;;;;;28.80;17.70;;;;;;;-2.50;75.82;97790.42;105866;1256;60371;-74
2024/01/16 03:28:17;;;;;;;29.90;20.00;;;;;;;-2.41;75.56;97793.44;105850;1254;71807;-72
2024/01/16 03:30:44;;;;;;;27.90;18.70;;;;;;;-2.43;75.68;97799.16;106206;1257;70291;-73
2024/01/16 03:33:12;;;;;;;45.90;24.70;;;;;;;-2.46;75.60;97810.34;107712;1254;71428;-73
2024/01/16 03:35:39;;;;;;;31.70;18.60;;;;;;;-2.49;75.60;97806.78;107811;1257;59215;-74
2024/01/16 03:38:07;;;;;;;31.00;17.00;;;;;;;-2.48;75.71;97807.89;107741;1254;59807;-73
2024/01/16 03:40:34;;;;;;;33.70;20.00;;;;;;;-2.36;75.53;97796.10;106815;1256;71754;-74
2024/01/16 03:43:02;;;;;;;34.60;21.00;;;;;;;-2.34;75.26;97786.55;107477;1254;69419;-74
2024/01/16 03:45:29;;;;;;;30.50;18.70;;;;;;;-2.38;75.38;97795.80;107938;1254;71815;-75
2024/01/16 03:47:58;;;;;;;31.50;19.50;;;;;;;-2.43;75.35;97798.80;107095;1257;59743;-74
2024/01/16 03:50:26;;;;;;;32.40;20.40;;;;;;;-2.46;75.39;97787.98;106484;1255;59616;-72
2024/01/16 03:52:53;;;;;;;27.80;18.00;;;;;;;-2.41;75.44;97785.27;107512;1260;71894;-74
2024/01/16 03:55:21;;;;;;;36.10;21.70;;;;;;;-2.32;75.36;97791.83;107470;1256;70731;-72
2024/01/16 03:57:48;;;;;;;37.40;21.30;;;;;;;-2.36;75.37;97785.23;106163;1257;71857;-74
2024/01/16 04:00:16;;;;;;;31.20;19.50;;;;;;;-2.43;75.38;97779.54;105872;1260;59586;-73
2024/01/16 04:02:43;;;;;;;30.80;18.40;;;;;;;-2.48;75.40;97780.04;105683;1256;60184;-71
2024/01/16 04:05:11;;;;;;;31.90;20.40;;;;;;;-2.49;75.48;97778.21;105952;1260;71611;-73
2024/01/16 04:07:38;;;;;;;33.80;21.00;;;;;;;-2.43;75.41;97774.70;107048;1254;70283;-73
2024/01/16 04:10:06;;;;;;;30.30;20.10;;;;;;;-2.45;75.46;97780.48;106200;1257;71438;-73
2024/01/16 04:12:34;;;;;;;29.00;18.10;;;;;;;-2.51;75.44;97780.97;106850;1254;59655;-73
2024/01/16 04:15:01;;;;;;;28.90;17.70;;;;;;;-2.57;75.50;97780.46;106482;1254;60013;-75
2024/01/16 04:17:28;;;;;;;26.60;16.40;;;;;;;-2.50;75.64;97777.11;105698;1259;73402;-74
2024/01/16 04:19:56;;;;;;;27.80;15.90;;;;;;;-2.44;75.37;97776.94;105719;1254;69995;-74
2024/01/16 04:22:23;;;;;;;26.30;16.80;;;;;;;-2.48;75.23;97776.92;105762;1259;70068;-74
2024/01/16 04:24:51;;;;;;;30.60;18.80;;;;;;;-2.55;75.23;97782.70;105670;1259;60050;-73
2024/01/16 04:27:18;;;;;;;34.50;19.90;;;;;;;-2.60;75.31;97789.13;106035;1256;60014;-74
2024/01/16 04:29:46;;;;;;;29.60;19.60;;;;;;;-2.50;75.34;97787.85;107823;1254;73104;-73
2024/01/16 04:32:13;;;;;;;31.20;19.00;;;;;;;-2.47;75.25;97781.96;108382;1256;68738;-75
2024/01/16 04:34:40;;;;;;;32.70;20.70;;;;;;;-2.51;75.21;97785.79;106411;1254;73032;-74
2024/01/16 04:37:08;;;;;;;27.70;17.50;;;;;;;-2.56;75.21;97783.80;105608;1257;59201;-74
2024/01/16 04:39:35;;;;;;;26.60;17.30;;;;;;;-2.55;75.51;97782.05;105679;1254;59743;-75
2024/01/16 04:42:03;;;;;;;32.30;18.80;;;;;;;-2.46;75.31;97783.70;105563;1255;71257;-74
2024/01/16 04:44:31;;;;;;;33.50;22.00;;;;;;;-2.48;75.21;97788.02;105769;1259;68842;-73
2024/01/16 04:46:58;;;;;;;36.50;21.60;;;;;;;-2.55;75.20;97787.02;105751;1259;71187;-76
2024/01/16 04:49:25;;;;;;;31.10;18.90;;;;;;;-2.60;75.31;97796.49;105640;1254;59725;-74
2024/01/16 04:51:53;;;;;;;30.70;18.60;;;;;;;-2.57;75.38;97799.66;105760;1254;61303;-73
2024/01/16 04:54:21;;;;;;;29.30;18.60;;;;;;;-2.49;75.20;97808.58;105595;1257;73079;-73
2024/01/16 04:56:48;;;;;;;28.50;18.30;;;;;;;-2.53;75.25;97809.58;105754;1256;68888;-73
2024/01/16 04:59:15;;;;;;;29.90;18.20;;;;;;;-2.59;75.27;97804.73;105819;1253;74472;-73
2024/01/16 05:01:43;;;;;;;30.60;18.00;;;;;;;-2.63;75.35;97807.65;105667;1258;59613;-74
2024/01/16 05:04:10;;;;;;;26.30;17.70;;;;;;;-2.56;75.56;97802.52;105557;1260;60836;-74
2024/01/16 05:06:38;;;;;;;30.70;18.00;;;;;;;-2.50;75.34;97808.78;105720;1254;73541;-73
2024/01/16 05:09:09;;;;;;;28.00;17.90;;;;;;;-2.54;75.11;97806.34;105809;1259;68709;-74
2024/01/16 05:11:36;;;;;;;26.70;16.30;;;;;;;-2.60;75.37;97806.13;105623;1254;72544;-75
2024/01/16 05:14:03;;;;;;;31.10;17.10;;;;;;;-2.60;75.38;97807.58;105738;1256;60518;-74
2024/01/16 05:16:31;;;;;;;27.10;17.30;;;;;;;-2.49;75.26;97810.61;105899;1257;59638;-72
2024/01/16 05:18:58;;;;;;;28.90;17.20;;;;;;;-2.46;75.06;97802.22;105901;1253;71915;-74
2024/01/16 05:21:26;;;;;;;30.20;16.90;;;;;;;-2.50;74.97;97807.41;105783;1253;70023;-73
2024/01/16 05:23:53;;;;;;;30.10;17.50;;;;;;;-2.54;75.06;97811.59;106603;1259;71409;-74
2024/01/16 05:26:22;;;;;;;26.40;16.20;;;;;;;-2.56;75.18;97811.75;106810;1253;59634;-73
2024/01/16 05:28:50;;;;;;;23.00;14.90;;;;;;;-2.46;75.12;97811.02;108856;1253;59000;-73
2024/01/16 05:31:19;;;;;;;29.00;17.10;;;;;;;-2.38;75.01;97807.25;108236;1255;72081;-74
2024/01/16 05:33:47;;;;;;;27.30;17.30;;;;;;;-2.42;74.92;97816.44;105870;1256;69496;-75
2024/01/16 05:36:14;;;;;;;27.70;17.70;;;;;;;-2.47;74.99;97817.17;105994;1259;72456;-74
2024/01/16 05:38:42;;;;;;;25.80;15.90;;;;;;;-2.49;74.97;97823.99;105760;1253;60911;-75
2024/01/16 05:41:09;;;;;;;25.20;15.40;;;;;;;-2.41;74.87;97820.48;105711;1258;59646;-75
2024/01/16 05:43:36;;;;;;;24.70;16.00;;;;;;;-2.33;74.62;97816.90;105837;1253;71230;-74
2024/01/16 05:46:05;;;;;;;32.10;18.40;;;;;;;-2.39;74.61;97825.64;105703;1254;69626;-76
2024/01/16 05:48:32;;;;;;;25.80;17.30;;;;;;;-2.45;74.67;97830.34;105671;1259;70451;-75
2024/01/16 05:51:00;;;;;;;34.70;20.10;;;;;;;-2.50;74.78;97827.89;105717;1255;59746;-74
2024/01/16 05:53:27;;;;;;;29.20;16.30;;;;;;;-2.48;75.08;97827.32;105705;1259;60128;-74
2024/01/16 05:55:55;;;;;;;27.10;16.70;;;;;;;-2.41;74.71;97823.45;105736;1259;73172;-74
2024/01/16 05:58:22;;;;;;;25.90;17.10;;;;;;;-2.44;74.83;97829.77;105642;1254;70336;-79
2024/01/16 06:00:50;;;;;;;26.80;15.90;;;;;;;-2.50;74.71;97832.52;105911;1259;70343;-78
2024/01/16 06:03:17;;;;;;;25.70;16.70;;;;;;;-2.53;74.85;97833.38;106289;1253;60861;-81
2024/01/16 06:05:45;;;;;;;29.40;15.60;;;;;;;-2.47;74.93;97843.05;106165;1260;60356;-81
2024/01/16 06:08:12;;;;;;;30.50;18.40;;;;;;;-2.45;74.70;97852.38;106191;1253;73823;-81
2024/01/16 06:10:40;;;;;;;28.50;18.10;;;;;;;-2.49;74.83;97851.90;106523;1259;69261;-81
2024/01/16 06:13:07;;;;;;;26.00;15.60;;;;;;;-2.53;75.02;97848.95;106858;1254;71637;-82
2024/01/16 06:15:34;;;;;;;28.00;15.70;;;;;;;-2.54;74.94;97853.86;105805;1262;61198;-80
2024/01/16 06:18:02;;;;;;;28.70;16.90;;;;;;;-2.43;74.96;97855.52;107199;1259;60602;-80
2024/01/16 06:20:30;;;;;;;27.00;15.80;;;;;;;-2.37;74.81;97862.58;107236;1253;72541;-82
2024/01/16 06:22:59;;;;;;;26.60;16.30;;;;;;;-2.39;74.73;97867.80;108838;1253;69265;-78
2024/01/16 06:25:26;;;;;;;29.20;17.20;;;;;;;-2.41;74.82;97871.30;108885;1253;71413;-83
2024/01/16 06:27:55;;;;;;;29.10;17.10;;;;;;;-2.35;74.88;97868.39;108574;1255;60552;-81
2024/01/16 06:30:23;;;;;;;31.30;19.00;;;;;;;-2.22;74.77;97867.00;107378;1253;59763;-81
2024/01/16 06:32:51;;;;;;;26.00;15.80;;;;;;;-2.21;74.63;97862.13;107200;1253;72606;-81
2024/01/16 06:35:19;;;;;;;24.90;15.90;;;;;;;-2.24;74.49;97868.94;106245;1254;70125;-80
2024/01/16 06:37:46;;;;;;;27.40;16.20;;;;;;;-2.26;74.30;97866.90;106133;1254;72673;-81
2024/01/16 06:40:14;;;;;;;23.40;14.20;;;;;;;-2.28;74.37;97868.60;106008;1257;60457;-81
2024/01/16 06:42:41;;;;;;;26.30;16.20;;;;;;;-2.18;74.29;97867.55;105963;1259;60575;-81
2024/01/16 06:45:09;;;;;;;27.50;17.00;;;;;;;-2.15;74.06;97865.61;106254;1260;75415;-81
2024/01/16 06:47:37;;;;;;;28.00;18.50;;;;;;;-2.21;74.22;97863.14;106017;1253;70013;-81
2024/01/16 06:50:05;;;;;;;26.90;17.70;;;;;;;-2.24;74.10;97868.80;106050;1254;72644;-81
2024/01/16 06:52:33;;;;;;;30.60;19.40;;;;;;;-2.27;74.11;97870.06;106117;1253;60443;-81
2024/01/16 06:55:01;;;;;;;31.80;17.60;;;;;;;-2.18;74.25;97877.61;106517;1259;60425;-80
2024/01/16 06:57:28;;;;;;;29.60;17.30;;;;;;;-2.11;73.99;97873.41;107837;1254;72879;-81
2024/01/16 06:59:56;;;;;;;29.50;18.40;;;;;;;-2.12;73.87;97883.19;107351;1254;70773;-81
2024/01/16 07:02:23;;;;;;;27.50;16.50;;;;;;;-2.14;73.81;97888.55;106261;1256;72733;-81
2024/01/16 07:04:51;;;;;;;24.00;12.60;;;;;;;-2.16;73.56;97892.70;105895;1259;60587;-81
2024/01/16 07:07:18;;;;;;;25.90;16.00;;;;;;;-2.09;73.50;97890.02;105798;1253;60483;-81
2024/01/16 07:09:46;;;;;;;25.00;16.20;;;;;;;-2.01;73.37;97890.00;105873;1256;72925;-81
2024/01/16 07:12:13;;;;;;;26.50;17.10;;;;;;;-2.03;73.39;97891.09;105798;1256;70129;-82
2024/01/16 07:14:40;;;;;;;32.50;18.90;;;;;;;-2.08;73.38;97891.71;105836;1259;71045;-81
2024/01/16 07:17:08;;;;;;;30.40;18.30;;;;;;;-2.14;73.33;97894.46;106095;1257;60872;-81
2024/01/16 07:19:35;;;;;;;31.00;18.50;;;;;;;-2.20;73.66;97895.46;107154;1253;60440;-82
2024/01/16 07:22:03;;;;;;;27.40;16.20;;;;;;;-2.20;73.74;97893.41;108087;1254;73843;-82
2024/01/16 07:24:31;;;;;;;23.00;15.30;;;;;;;-2.08;73.56;97895.02;108985;1257;68870;-81
2024/01/16 07:26:58;;;;;;;25.50;17.20;;;;;;;-2.03;73.47;97893.45;108270;1254;71372;-80
2024/01/16 07:29:26;;;;;;;27.20;16.70;;;;;;;-2.04;73.34;97895.52;107424;1260;59164;-81
2024/01/16 07:31:53;;;;;;;23.70;14.60;;;;;;;-2.06;73.19;97893.94;107197;1253;59220;-80
2024/01/16 07:34:21;;;;;;;26.60;16.60;;;;;;;-2.07;73.16;97896.61;107285;1253;76296;-80
2024/01/16 07:36:49;;;;;;;22.90;14.80;;;;;;;-2.07;73.26;97899.44;106593;1253;69189;-81
2024/01/16 07:39:17;;;;;;;24.70;14.60;;;;;;;-1.98;73.16;97898.14;105775;1260;72785;-81
2024/01/16 07:41:44;;;;;;;31.30;17.30;;;;;;;-1.87;72.91;97896.98;105933;1257;60450;-81
2024/01/16 07:44:11;;;;;;;27.20;15.70;;;;;;;-1.88;72.83;97896.02;107636;1261;61552;-81
2024/01/16 07:46:39;;;;;;;30.20;16.60;;;;;;;-1.87;72.88;97897.17;107392;1253;74025;-81
2024/01/16 07:49:06;;;;;;;28.50;17.60;;;;;;;-1.86;72.69;97898.60;105738;1259;69243;-81
2024/01/16 07:51:34;;;;;;;24.70;15.90;;;;;;;-1.84;72.83;97901.23;106633;1253;71618;-81
2024/01/16 07:54:09;;;;;;;22.00;12.60;;;;;;;-1.81;72.80;97909.27;106267;1259;60564;-81
2024/01/16 07:56:37;;;;;;;25.20;16.00;;;;;;;-1.69;72.19;97908.20;107183;1253;59982;-82
2024/01/16 07:59:05;;;;;;;26.60;15.00;;;;;;;-1.57;72.11;97908.55;107242;1254;72770;-81
2024/01/16 08:01:32;;;;;;;24.00;15.10;;;;;;;-1.55;71.87;97907.05;106702;1253;69934;-82
2024/01/16 08:04:00;;;;;;;21.10;13.70;;;;;;;-1.56;71.65;97908.83;105861;1257;73259;-81
2024/01/16 08:06:28;;;;;;;24.80;15.60;;;;;;;-1.56;71.66;97910.25;105731;1259;60644;-81
2024/01/16 08:08:55;;;;;;;23.60;14.90;;;;;;;-1.55;71.83;97911.20;105811;1253;61078;-81
2024/01/16 08:11:23;;;;;;;28.00;15.50;;;;;;;-1.53;71.58;97916.23;107642;1253;72717;-81
2024/01/16 08:13:50;;;;;;;21.40;13.10;;;;;;;-1.45;71.65;97917.08;107784;1253;70080;-81
2024/01/16 08:16:18;;;;;;;23.20;13.50;;;;;;;-1.27;71.55;97916.70;107959;1254;71241;-82
2024/01/16 08:18:46;;;;;;;23.10;12.40;;;;;;;-1.20;71.10;97916.16;107106;1259;60319;-83
2024/01/16 08:21:14;;;;;;;21.10;12.70;;;;;;;-1.20;70.62;97910.46;109078;1256;58815;-82
2024/01/16 08:23:41;;;;;;;19.70;13.40;;;;;;;-1.21;70.79;97907.65;108795;1253;73103;-82
2024/01/16 08:26:10;;;;;;;19.80;12.20;;;;;;;-1.20;70.64;97906.60;107984;1253;68834;-82
2024/01/16 08:28:37;;;;;;;22.70;13.40;;;;;;;-1.19;70.71;97918.00;107735;1253;73973;-83
2024/01/16 08:31:05;;;;;;;21.10;13.20;;;;;;;-1.16;70.53;97925.23;107668;1257;59141;-83
2024/01/16 08:33:32;;;;;;;19.80;12.60;;;;;;;-1.07;70.66;97918.71;106756;1257;60464;-84
2024/01/16 08:36:12;;;;;;;20.60;12.60;;;;;;;-0.82;69.98;97920.94;106214;1254;75920;-84
2024/01/16 08:38:40;;;;;;;25.60;14.00;;;;;;;-0.60;69.27;97916.11;106051;1261;70302;-75
2024/01/16 08:41:08;;;;;;;23.60;12.50;;;;;;;-0.48;68.98;97921.84;105690;1256;72815;-76
2024/01/16 08:43:36;;;;;;;18.70;12.70;;;;;;;-0.34;68.60;97919.45;106000;1256;60524;-76
2024/01/16 08:46:04;;;;;;;19.70;13.40;;;;;;;-0.13;68.36;97924.06;105743;1254;60499;-75
2024/01/16 08:48:32;;;;;;;19.00;12.30;;;;;;;0.06;67.86;97925.94;105940;1258;74110;-75
2024/01/16 08:51:00;;;;;;;19.60;12.50;;;;;;;0.24;67.00;97927.10;106185;1253;72495;-75
2024/01/16 08:53:30;;;;;;;16.30;10.40;;;;;;;0.45;66.16;97934.80;106409;1257;71775;-75
2024/01/16 08:55:58;;;;;;;18.10;11.20;;;;;;;0.73;66.12;97929.27;105855;1257;60348;-76
2024/01/16 08:58:26;;;;;;;12.90;8.70;;;;;;;0.82;64.78;97932.60;105811;1260;60967;-75
2024/01/16 09:00:54;;;;;;;14.20;10.00;;;;;;;0.74;64.21;97934.59;105598;1256;72928;-75
2024/01/16 09:03:22;;;;;;;12.90;8.70;;;;;;;0.57;64.51;97932.44;105616;1255;70376;-75
2024/01/16 09:05:49;;;;;;;14.60;8.10;;;;;;;0.39;64.63;97931.64;105693;1257;73317;-76
2024/01/16 09:08:17;;;;;;;11.70;7.90;;;;;;;0.22;64.75;97933.17;105606;1257;60534;-76
2024/01/16 09:10:45;;;;;;;12.20;8.30;;;;;;;0.10;65.01;97937.90;105531;1257;62089;-74
2024/01/16 09:13:12;;;;;;;15.30;9.10;;;;;;;0.03;64.94;97937.76;105586;1258;74034;-75
2024/01/16 09:15:40;;;;;;;10.20;7.30;;;;;;;-0.02;65.00;97941.98;105807;1255;69932;-75
2024/01/16 09:18:07;;;;;;;11.40;6.60;;;;;;;-0.06;64.83;97940.52;108553;1255;73223;-77
2024/01/16 09:20:36;;;;;;;10.10;6.60;;;;;;;-0.07;64.94;97942.11;108159;1257;58258;-75
2024/01/16 09:23:04;;;;;;;10.80;6.90;;;;;;;-0.07;64.72;97943.92;106006;1262;60524;-75
2024/01/16 09:25:31;;;;;;;9.50;6.10;;;;;;;-0.06;64.91;97944.80;105904;1262;73905;-74
2024/01/16 09:28:00;;;;;;;11.50;6.70;;;;;;;0.25;64.66;97947.52;105734;1261;70427;-75
2024/01/16 09:30:28;;;;;;;10.90;6.40;;;;;;;0.72;63.95;97948.09;105795;1257;72907;-75
2024/01/16 09:32:55;;;;;;;11.00;6.20;;;;;;;1.20;62.83;97945.55;105664;1256;60444;-75
2024/01/16 09:35:23;;;;;;;10.70;6.70;;;;;;;1.82;61.61;97948.55;105651;1255;60552;-76
2024/01/16 09:37:51;;;;;;;9.20;5.50;;;;;;;2.39;60.01;97952.54;105579;1257;71744;-77
2024/01/16 09:40:18;;;;;;;8.70;6.00;;;;;;;2.89;58.70;97951.71;105755;1259;68995;-76
2024/01/16 09:42:46;;;;;;;9.30;5.50;;;;;;;3.25;57.34;97956.05;105802;1257;73479;-75
2024/01/16 09:45:14;;;;;;;8.90;5.60;;;;;;;3.62;55.95;97950.44;105691;1259;60452;-75
2024/01/16 09:47:41;;;;;;;10.70;6.30;;;;;;;4.03;55.85;97948.93;105657;1257;60613;-76
2024/01/16 09:50:10;;;;;;;9.10;6.10;;;;;;;4.30;54.78;97942.58;105733;1257;73005;-76
2024/01/16 09:52:38;;;;;;;6.80;5.20;;;;;;;4.61;53.42;97947.89;105541;1254;70720;-75
2024/01/16 09:55:06;;;;;;;10.00;6.50;;;;;;;5.03;52.29;97956.29;105610;1257;71641;-76
2024/01/16 09:57:34;;;;;;;9.60;5.60;;;;;;;5.47;51.91;97955.42;105725;1253;60626;-76
2024/01/16 10:00:03;;;;;;;7.40;5.30;;;;;;;5.76;50.28;97959.27;105853;1259;60610;-76
2024/01/16 10:02:34;;;;;;;7.50;5.50;;;;;;;5.95;50.09;97959.95;107474;1257;72443;-87
2024/01/16 10:05:03;;;;;;;7.40;4.90;;;;;;;6.24;48.60;97963.74;107489;1255;69575;-87
2024/01/16 10:07:30;;;;;;;6.00;5.10;;;;;;;6.33;48.58;97963.31;109088;1253;71840;-87
2024/01/16 10:10:01;;;;;;;7.90;4.80;;;;;;;6.41;48.64;97964.39;109264;1253;60436;-86
2024/01/16 10:12:29;;;;;;;10.70;5.60;;;;;;;6.31;48.16;97963.17;107454;1254;60954;-84
2024/01/16 10:14:57;;;;;;;7.40;4.80;;;;;;;6.11;47.86;97969.52;108504;1256;76026;-87
2024/01/16 10:17:43;;;;;;;7.70;5.40;;;;;;;5.77;48.63;97981.41;109126;1253;70071;-84
2024/01/16 10:20:16;;;;;;;7.80;5.10;;;;;;;5.20;48.63;97977.15;108601;1257;73122;-84
2024/01/16 10:22:54;;;;;;;6.60;4.60;;;;;;;4.47;48.94;97983.48;108099;1257;61445;-84
2024/01/16 10:25:25;;;;;;;8.60;5.30;;;;;;;3.63;51.11;97985.36;108153;1256;60476;-84
2024/01/16 10:28:04;;;;;;;9.70;5.60;;;;;;;3.01;52.67;97989.00;106856;1255;72486;-84
2024/01/16 10:30:35;;;;;;;7.30;5.20;;;;;;;2.56;53.46;97983.64;106420;1256;72034;-84
2024/01/16 10:33:13;;;;;;;7.80;4.40;;;;;;;2.12;54.34;97988.48;106370;1256;74574;-83
2024/01/16 10:35:41;;;;;;;6.80;4.50;;;;;;;1.73;55.39;97991.20;106451;1260;60406;-84
2024/01/16 10:38:09;;;;;;;7.60;4.90;;;;;;;1.39;55.82;97999.89;106486;1254;60556;-85
2024/01/16 10:40:40;;;;;;;8.20;4.60;;;;;;;1.02;56.17;98003.14;107363;1255;72781;-83
2024/01/16 10:43:07;;;;;;;8.30;4.40;;;;;;;0.73;57.13;98005.39;106382;1253;70306;-85
2024/01/16 10:45:36;;;;;;;6.20;3.60;;;;;;;0.49;57.37;98008.02;106370;1262;71898;-82
2024/01/16 10:48:05;;;;;;;4.10;2.50;;;;;;;0.30;57.49;98006.72;107154;1253;60546;-83
2024/01/16 10:50:36;;;;;;;4.70;2.60;;;;;;;0.19;57.51;98013.17;107477;1253;60460;-83
2024/01/16 10:53:08;;;;;;;4.80;2.60;;;;;;;0.14;57.81;98015.40;107683;1254;74865;-85
2024/01/16 10:55:57;;;;;;;7.10;3.40;;;;;;;0.31;58.07;98017.65;106738;1258;70164;-85
2024/01/16 10:58:30;;;;;;;6.00;3.00;;;;;;;0.53;57.00;98021.49;106196;1257;72280;-85
2024/01/16 11:01:03;;;;;;;5.80;2.90;;;;;;;0.59;56.40;98028.52;107379;1254;60424;-84
2024/01/16 11:03:35;;;;;;;;;;;;;;;0.75;56.24;98027.91;107344;1257;61267;-84
2024/01/16 11:06:05;;;;;;;4.80;2.10;;;;;;;0.84;56.53;98028.92;107105;1260;71861;-86
2024/01/16 11:08:35;;;;;;;3.20;2.30;;;;;;;0.85;56.09;98037.88;106585;1259;69102;-85
2024/01/16 11:11:04;;;;;;;4.10;2.20;;;;;;;0.78;55.80;98041.92;106893;1257;72961;-85
2024/01/16 11:13:32;;;;;;;3.30;1.70;;;;;;;0.62;55.51;98047.02;108792;1253;60165;-87
2024/01/16 11:16:00;;;;;;;7.80;2.60;;;;;;;0.43;55.36;98053.20;109352;1254;60952;-84
2024/01/16 11:18:28;;;;;;;4.30;1.90;;;;;;;0.24;55.89;98054.70;108299;1259;74660;-81
2024/01/16 11:20:56;;;;;;;10.30;3.20;;;;;;;0.10;56.49;98059.31;108219;1259;68729;-82